Time;durP1;ratioP1;P1;durP2;ratioP2;P2;SDS_P1;SDS_P2;PMS_P1;PMS_P2;Temp;Humidity;BMP_temperature;BMP_pressure;BME280_temperature;BME280_humidity;BME280_pressure;Samples;Min_cycle;Max_cycle;Signal;HPM_P1;HPM_P2
2024/01/04 00:01:45;;;;;;;17.40;11.93;;;;;;;4.17;94.44;96340.50;4874677;29;20848;-66
2024/01/04 00:04:13;;;;;;;17.60;10.63;;;;;;;4.08;95.40;96338.25;4874975;29;20193;-63
2024/01/04 00:06:41;;;;;;;18.43;11.57;;;;;;;3.92;96.10;96326.78;4875425;29;20670;-64
2024/01/04 00:09:08;;;;;;;15.77;10.60;;;;;;;4.09;96.01;96339.91;4875012;29;20242;-70
2024/01/04 00:11:36;;;;;;;16.27;10.03;;;;;;;3.91;95.83;96310.59;4889457;29;20200;-67
2024/01/04 00:14:05;;;;;;;17.60;11.60;;;;;;;3.90;95.76;96308.06;4875062;29;20306;-71
2024/01/04 00:16:33;;;;;;;19.70;10.50;;;;;;;3.99;97.05;96333.41;4873214;29;20300;-71
2024/01/04 00:19:00;;;;;;;16.30;10.70;;;;;;;4.10;97.24;96336.47;4875277;29;20226;-69
2024/01/04 00:21:27;;;;;;;18.03;10.67;;;;;;;4.19;97.20;96341.28;4874621;29;20215;-68
2024/01/04 00:23:54;;;;;;;22.23;10.53;;;;;;;4.30;96.95;96340.94;4874746;29;20208;-66
2024/01/04 00:26:21;;;;;;;17.40;10.23;;;;;;;4.27;96.92;96329.06;4874699;29;20244;-64
2024/01/04 00:28:48;;;;;;;16.33;10.47;;;;;;;4.30;96.23;96325.56;4874680;29;20246;-68
2024/01/04 00:31:15;;;;;;;19.63;11.20;;;;;;;4.43;95.95;96319.16;4874982;29;20203;-66
2024/01/04 00:33:42;;;;;;;13.83;10.30;;;;;;;4.46;95.40;96327.56;4873030;29;20225;-65
2024/01/04 00:36:11;;;;;;;15.67;9.67;;;;;;;4.51;95.30;96307.75;4875056;29;20707;-67
2024/01/04 00:38:38;;;;;;;14.17;9.97;;;;;;;4.64;94.41;96331.22;4872914;29;20562;-66
2024/01/04 00:41:07;;;;;;;18.57;10.73;;;;;;;4.60;93.86;96327.94;4874364;29;20770;-66
2024/01/04 00:43:35;;;;;;;17.43;9.73;;;;;;;4.57;93.30;96316.97;4874763;29;20637;-68
2024/01/04 00:46:03;;;;;;;16.67;10.57;;;;;;;4.67;92.29;96323.44;4874418;29;20291;-66
2024/01/04 00:48:30;;;;;;;16.73;9.73;;;;;;;4.53;92.59;96316.25;4873348;29;20231;-64
2024/01/04 00:50:58;;;;;;;15.53;9.43;;;;;;;4.49;92.82;96309.50;4872676;29;20260;-68
2024/01/04 00:53:25;;;;;;;17.70;11.00;;;;;;;4.56;92.75;96313.56;4874743;29;20256;-69
2024/01/04 00:55:53;;;;;;;15.27;10.13;;;;;;;4.46;92.62;96312.19;4873942;29;20231;-67
2024/01/04 00:58:20;;;;;;;16.87;9.97;;;;;;;4.34;91.97;96284.41;4873053;29;20209;-67
2024/01/04 01:00:47;;;;;;;15.17;9.50;;;;;;;4.39;92.14;96297.91;4888127;29;20218;-66
2024/01/04 01:03:14;;;;;;;14.97;10.50;;;;;;;4.47;91.23;96307.91;4874033;29;20807;-68
2024/01/04 01:05:41;;;;;;;18.07;9.87;;;;;;;4.34;90.49;96309.19;4874237;29;20196;-68
2024/01/04 01:08:10;;;;;;;18.30;10.33;;;;;;;4.02;90.90;96298.28;4873785;29;20326;-67
2024/01/04 01:10:37;;;;;;;14.93;9.03;;;;;;;3.83;91.34;96316.84;4874270;29;20228;-68
2024/01/04 01:13:04;;;;;;;14.10;9.77;;;;;;;3.60;91.76;96320.09;4887786;29;20567;-67
2024/01/04 01:15:31;;;;;;;13.93;9.13;;;;;;;3.45;92.30;96306.91;4873913;29;20398;-67
2024/01/04 01:18:00;;;;;;;12.13;8.03;;;;;;;3.42;93.21;96325.75;4872455;29;20238;-64
2024/01/04 01:20:28;;;;;;;11.80;8.27;;;;;;;3.46;93.69;96331.63;4873749;29;20203;-64
2024/01/04 01:22:55;;;;;;;12.20;8.57;;;;;;;3.60;94.19;96349.97;4872234;29;20211;-67
2024/01/04 01:25:22;;;;;;;11.10;7.87;;;;;;;3.59;93.27;96349.13;4873373;29;20281;-63
2024/01/04 01:27:49;;;;;;;14.13;9.60;;;;;;;3.47;93.81;96348.66;4874028;29;20284;-68
2024/01/04 01:30:16;;;;;;;15.33;9.50;;;;;;;3.28;94.07;96336.41;4873245;29;20752;-65
2024/01/04 01:32:43;;;;;;;14.00;9.07;;;;;;;3.28;95.69;96343.22;4872398;29;20316;-65
2024/01/04 01:35:10;;;;;;;17.10;10.03;;;;;;;3.37;95.77;96330.19;4872180;29;20215;-66
2024/01/04 01:37:39;;;;;;;17.53;10.37;;;;;;;3.45;96.22;96341.03;4873320;29;20295;-63
2024/01/04 01:40:06;;;;;;;17.40;11.47;;;;;;;3.52;96.59;96334.00;4873556;29;20212;-62
2024/01/04 01:42:34;;;;;;;21.57;13.37;;;;;;;3.54;97.04;96327.13;4873415;29;20195;-62
2024/01/04 01:45:01;;;;;;;17.33;11.33;;;;;;;3.58;97.50;96333.81;4873715;29;20211;-63
2024/01/04 01:47:31;;;;;;;18.60;12.27;;;;;;;3.67;97.86;96320.75;4856303;29;21014;-63
2024/01/04 01:49:59;;;;;;;19.17;11.03;;;;;;;3.75;97.54;96318.81;4872338;29;20200;-64
2024/01/04 01:52:26;;;;;;;17.00;9.67;;;;;;;3.87;97.97;96318.41;4873384;29;20208;-63
2024/01/04 01:54:53;;;;;;;14.17;9.17;;;;;;;3.93;96.94;96323.34;4871961;29;20660;-63
2024/01/04 01:57:21;;;;;;;14.23;8.80;;;;;;;3.99;96.67;96318.03;4871896;29;20208;-63
2024/01/04 01:59:48;;;;;;;14.27;8.90;;;;;;;4.31;95.68;96320.38;4871548;29;20598;-64
2024/01/04 02:02:16;;;;;;;12.20;8.30;;;;;;;4.23;94.18;96332.59;4873459;29;20754;-64
2024/01/04 02:04:45;;;;;;;14.37;8.50;;;;;;;4.30;93.67;96317.88;4872591;29;20275;-68
2024/01/04 02:07:12;;;;;;;13.73;8.23;;;;;;;4.30;93.30;96323.00;4871830;29;20201;-69
2024/01/04 02:09:39;;;;;;;14.17;8.90;;;;;;;4.09;92.98;96314.28;4871377;29;20664;-66
2024/01/04 02:12:10;;;;;;;13.90;8.97;;;;;;;4.01;92.98;96309.41;4872518;29;20211;-65
2024/01/04 02:14:38;;;;;;;11.53;8.50;;;;;;;4.01;93.72;96306.84;4872771;29;20212;-68
2024/01/04 02:17:07;;;;;;;13.30;8.10;;;;;;;4.04;93.26;96305.91;4871223;29;20208;-64
2024/01/04 02:19:34;;;;;;;11.73;7.10;;;;;;;3.90;93.08;96297.81;4871701;29;20205;-65
2024/01/04 02:22:02;;;;;;;14.27;7.30;;;;;;;3.83;92.41;96301.47;4871240;29;20241;-64
2024/01/04 02:24:29;;;;;;;12.00;6.97;;;;;;;3.99;93.01;96306.06;4871705;29;20595;-64
2024/01/04 02:26:56;;;;;;;10.50;7.70;;;;;;;3.84;91.68;96298.00;4872633;29;20211;-67
2024/01/04 02:29:24;;;;;;;10.17;7.70;;;;;;;3.81;92.10;96309.19;4872535;29;20436;-65
2024/01/04 02:31:51;;;;;;;11.87;6.83;;;;;;;3.67;92.79;96295.16;4886745;29;20204;-68
2024/01/04 02:34:18;;;;;;;10.93;7.27;;;;;;;3.86;92.95;96319.28;4872399;29;20914;-67
2024/01/04 02:36:45;;;;;;;11.07;6.77;;;;;;;3.80;92.62;96316.94;4872679;29;20208;-67
2024/01/04 02:39:12;;;;;;;10.83;7.40;;;;;;;3.58;92.91;96315.91;4872274;29;20275;-67
2024/01/04 02:41:40;;;;;;;13.43;8.93;;;;;;;3.55;92.17;96295.50;4872832;29;20200;-67
2024/01/04 02:44:07;;;;;;;11.43;7.90;;;;;;;3.59;93.20;96327.81;4872232;29;20199;-65
2024/01/04 02:46:38;;;;;;;13.70;7.30;;;;;;;3.54;93.03;96315.19;4872327;29;20215;-68
2024/01/04 02:49:05;;;;;;;13.90;7.70;;;;;;;3.50;93.71;96325.53;4872226;29;20475;-68
2024/01/04 02:51:33;;;;;;;11.23;7.80;;;;;;;3.47;93.06;96310.25;4872537;29;20274;-66
2024/01/04 02:54:00;;;;;;;11.50;7.57;;;;;;;3.48;93.57;96329.88;4871179;29;20714;-65
2024/01/04 02:56:27;;;;;;;13.43;9.27;;;;;;;3.55;94.29;96321.09;4871951;29;20307;-66
2024/01/04 02:58:57;;;;;;;14.27;7.90;;;;;;;3.55;94.73;96326.22;4872480;29;20209;-65
2024/01/04 03:01:24;;;;;;;11.07;7.77;;;;;;;3.35;94.37;96308.91;4871799;29;20234;-67
2024/01/04 03:03:53;;;;;;;13.77;9.13;;;;;;;3.50;95.91;96322.97;4870649;29;20211;-66
2024/01/04 03:06:22;;;;;;;12.53;8.67;;;;;;;3.57;95.55;96329.56;4870916;29;20634;-67
2024/01/04 03:08:50;;;;;;;19.10;10.80;;;;;;;3.39;95.22;96320.75;4871977;29;20359;-65
2024/01/04 03:11:17;;;;;;;22.40;13.63;;;;;;;3.58;94.98;96332.13;4872695;29;20204;-64
2024/01/04 03:13:46;;;;;;;11.77;8.43;;;;;;;3.67;94.92;96316.47;4871613;29;20236;-68
2024/01/04 03:16:19;;;;;;;18.13;11.43;;;;;;;3.74;95.15;96327.34;4872348;29;20215;-66
2024/01/04 03:18:46;;;;;;;15.57;10.27;;;;;;;3.78;94.71;96336.63;4882630;29;20584;-67
2024/01/04 03:21:14;;;;;;;18.83;11.97;;;;;;;3.75;94.42;96323.94;4890844;29;20802;-68
2024/01/04 03:23:42;;;;;;;16.67;11.20;;;;;;;3.79;95.16;96325.50;4891652;29;20263;-67
2024/01/04 03:26:09;;;;;;;16.23;9.50;;;;;;;3.85;95.34;96338.13;4894359;29;20721;-66
2024/01/04 03:28:36;;;;;;;15.77;10.27;;;;;;;3.95;95.38;96326.69;4894719;29;20577;-67
2024/01/04 03:31:03;;;;;;;16.33;9.30;;;;;;;4.11;94.88;96327.88;4894439;29;20223;-63
2024/01/04 03:33:30;;;;;;;16.33;10.53;;;;;;;4.05;95.47;96338.31;4894916;29;20680;-65
2024/01/04 03:35:57;;;;;;;13.03;8.97;;;;;;;3.98;95.81;96344.50;4894261;29;20195;-70
2024/01/04 03:38:24;;;;;;;15.57;9.60;;;;;;;4.09;96.90;96335.63;4894746;29;20255;-64
2024/01/04 03:40:51;;;;;;;20.80;11.27;;;;;;;4.09;95.47;96330.50;4894402;29;20401;-68
2024/01/04 03:43:18;;;;;;;23.87;13.20;;;;;;;4.08;96.05;96325.44;4894167;29;20714;-65
2024/01/04 03:45:46;;;;;;;23.83;14.20;;;;;;;4.28;95.60;96314.53;4894551;29;20207;-63
2024/01/04 03:48:13;;;;;;;24.43;14.13;;;;;;;4.20;95.27;96330.16;4893947;29;20207;-63
2024/01/04 03:50:40;;;;;;;15.23;10.40;;;;;;;4.19;94.56;96320.78;4894450;29;20217;-63
2024/01/04 03:53:07;;;;;;;13.30;8.00;;;;;;;4.31;94.25;96317.81;4894084;29;20651;-63
2024/01/04 03:55:34;;;;;;;12.30;9.43;;;;;;;4.34;94.72;96316.88;4894069;29;20251;-64
2024/01/04 03:58:01;;;;;;;16.30;10.10;;;;;;;4.25;94.63;96320.59;4893894;29;20637;-65
2024/01/04 04:00:28;;;;;;;19.37;11.70;;;;;;;4.26;94.86;96303.50;4893988;29;20215;-64
2024/01/04 04:02:55;;;;;;;14.07;9.53;;;;;;;4.28;95.25;96289.75;4894222;29;20200;-67
2024/01/04 04:05:23;;;;;;;17.93;10.87;;;;;;;4.29;94.05;96288.84;4893708;29;20271;-65
2024/01/04 04:07:50;;;;;;;19.40;13.80;;;;;;;4.17;94.30;96284.13;4894424;29;20710;-66
2024/01/04 04:10:17;;;;;;;16.70;11.10;;;;;;;4.14;93.85;96274.81;4893562;29;20286;-66
2024/01/04 04:12:45;;;;;;;13.33;8.77;;;;;;;4.21;94.67;96270.31;4892559;29;20235;-64
2024/01/04 04:15:12;;;;;;;14.37;9.37;;;;;;;4.15;94.81;96270.53;4893779;29;20218;-63
2024/01/04 04:17:39;;;;;;;11.80;8.23;;;;;;;4.18;95.67;96270.44;4893727;29;20683;-66
2024/01/04 04:20:06;;;;;;;15.60;9.43;;;;;;;3.88;94.63;96254.34;4893721;29;20207;-67
2024/01/04 04:22:34;;;;;;;12.50;8.60;;;;;;;3.89;94.76;96285.91;4907890;29;20191;-66
2024/01/04 04:25:01;;;;;;;13.33;7.87;;;;;;;3.89;94.80;96275.69;4894207;29;20610;-66
2024/01/04 04:27:30;;;;;;;14.03;8.47;;;;;;;3.87;94.87;96262.09;4893530;29;20227;-64
2024/01/04 04:29:57;;;;;;;13.23;9.47;;;;;;;3.90;94.76;96264.53;4893762;29;20237;-64
2024/01/04 04:32:24;;;;;;;19.13;9.97;;;;;;;4.03;94.65;96265.81;4893399;29;20196;-65
2024/01/04 04:34:51;;;;;;;13.20;9.03;;;;;;;4.04;94.07;96276.00;4893368;29;20199;-64
2024/01/04 04:37:19;;;;;;;14.40;10.00;;;;;;;4.00;94.04;96294.06;4893156;29;20226;-66
2024/01/04 04:39:45;;;;;;;16.67;10.07;;;;;;;3.68;93.11;96266.09;4893206;29;20209;-65
2024/01/04 04:42:13;;;;;;;14.70;9.47;;;;;;;3.87;92.69;96290.25;4894074;29;20187;-64
2024/01/04 04:44:40;;;;;;;16.97;12.00;;;;;;;3.94;91.89;96304.53;4893173;29;20202;-66
2024/01/04 04:47:07;;;;;;;25.83;15.60;;;;;;;3.91;91.02;96312.31;4892073;29;20294;-65
2024/01/04 04:49:34;;;;;;;28.17;15.07;;;;;;;3.70;89.99;96292.50;4893029;29;20280;-65
2024/01/04 04:52:02;;;;;;;31.67;16.80;;;;;;;3.86;89.96;96311.59;4893223;29;20191;-67
2024/01/04 04:54:29;;;;;;;29.53;15.50;;;;;;;3.77;90.01;96317.03;4893415;29;20200;-66
2024/01/04 04:56:56;;;;;;;24.93;12.83;;;;;;;3.47;90.80;96321.34;4892911;29;20294;-66
2024/01/04 04:59:23;;;;;;;17.10;11.53;;;;;;;3.51;91.27;96311.84;4893294;29;20208;-64
2024/01/04 05:01:51;;;;;;;20.43;11.57;;;;;;;3.21;91.43;96304.19;4892651;29;20207;-64
2024/01/04 05:04:18;;;;;;;16.60;10.10;;;;;;;3.06;92.47;96296.97;4893158;29;20193;-66
2024/01/04 05:06:45;;;;;;;11.90;8.27;;;;;;;3.29;92.80;96302.28;4892841;29;20251;-65
2024/01/04 05:09:12;;;;;;;15.17;8.10;;;;;;;3.19;93.92;96300.03;4892607;29;20722;-64
2024/01/04 05:11:39;;;;;;;15.73;8.90;;;;;;;3.20;96.04;96284.63;4892687;29;20260;-67
2024/01/04 05:14:06;;;;;;;13.97;8.47;;;;;;;3.36;96.58;96285.00;4891097;29;20234;-64
2024/01/04 05:16:33;;;;;;;13.60;9.10;;;;;;;3.54;97.54;96275.94;4892851;29;20266;-65
2024/01/04 05:19:01;;;;;;;19.27;10.93;;;;;;;3.60;96.83;96279.16;4906404;29;20214;-65
2024/01/04 05:21:33;;;;;;;16.97;11.27;;;;;;;3.79;97.14;96279.41;4891537;29;20209;-65
2024/01/04 05:24:00;;;;;;;14.37;9.10;;;;;;;3.66;95.66;96271.28;4892264;29;20680;-64
2024/01/04 05:26:27;;;;;;;14.00;9.13;;;;;;;3.71;95.63;96289.88;4892650;29;20199;-68
2024/01/04 05:28:54;;;;;;;16.00;9.37;;;;;;;3.72;94.47;96301.81;4892355;29;20322;-66
2024/01/04 05:31:21;;;;;;;15.23;9.47;;;;;;;3.63;94.28;96306.34;4892520;29;20654;-65
2024/01/04 05:33:49;;;;;;;14.43;9.63;;;;;;;3.67;94.51;96297.72;4892637;29;20208;-63
2024/01/04 05:36:16;;;;;;;13.63;8.60;;;;;;;3.76;93.85;96312.78;4890695;29;20665;-67
2024/01/04 05:38:43;;;;;;;12.20;8.67;;;;;;;3.77;93.82;96315.28;4892610;29;20824;-63
2024/01/04 05:41:10;;;;;;;14.23;8.70;;;;;;;3.81;93.33;96311.75;4892214;29;20308;-67
2024/01/04 05:43:37;;;;;;;14.60;9.70;;;;;;;3.78;94.05;96308.44;4892272;29;20204;-67
2024/01/04 05:46:04;;;;;;;13.10;9.43;;;;;;;3.60;92.97;96270.63;4892055;29;20203;-67
2024/01/04 05:48:32;;;;;;;17.27;11.17;;;;;;;3.81;93.17;96303.25;4890659;29;20303;-67
2024/01/04 05:50:59;;;;;;;17.47;10.97;;;;;;;3.88;93.38;96323.50;4875312;29;20271;-65
2024/01/04 05:53:27;;;;;;;15.10;9.90;;;;;;;3.87;94.06;96303.06;4872312;29;20611;-64
2024/01/04 05:55:54;;;;;;;15.40;10.10;;;;;;;3.82;95.28;96297.22;4873127;29;20703;-67
2024/01/04 05:58:21;;;;;;;17.00;8.90;;;;;;;3.75;94.98;96280.41;4872340;29;20269;-63
2024/01/04 06:00:48;;;;;;;12.37;9.03;;;;;;;3.91;94.66;96304.63;4872995;29;20211;-64
2024/01/04 06:03:16;;;;;;;14.40;9.27;;;;;;;3.98;94.77;96306.09;4872276;29;20207;-68
2024/01/04 06:05:44;;;;;;;12.20;8.13;;;;;;;3.95;95.11;96314.75;4872396;29;20196;-67
2024/01/04 06:08:11;;;;;;;14.40;10.17;;;;;;;3.95;95.20;96313.91;4872686;29;20275;-69
2024/01/04 06:10:38;;;;;;;15.53;9.37;;;;;;;3.95;95.97;96308.78;4871699;29;20223;-68
2024/01/04 06:13:07;;;;;;;24.63;11.73;;;;;;;4.16;95.83;96308.09;4871040;29;20235;-67
2024/01/04 06:15:35;;;;;;;22.00;10.30;;;;;;;4.23;94.59;96321.50;4872111;29;20208;-68
2024/01/04 06:18:02;;;;;;;16.23;9.37;;;;;;;4.22;94.29;96332.66;4872285;29;20682;-67
2024/01/04 06:20:29;;;;;;;20.90;11.80;;;;;;;3.24;94.72;96173.66;4872084;29;20216;-62
2024/01/04 06:22:56;;;;;;;50.37;20.37;;;;;;;4.10;94.39;96336.47;4872319;29;20270;-65
2024/01/04 06:25:23;;;;;;;32.10;21.80;;;;;;;4.05;94.78;96325.53;4872355;29;20203;-65
2024/01/04 06:27:51;;;;;;;82.17;41.63;;;;;;;4.21;94.72;96334.38;4870580;29;20214;-64
2024/01/04 06:30:18;;;;;;;59.00;37.07;;;;;;;4.22;94.20;96330.09;4872431;29;20243;-70
2024/01/04 06:32:50;;;;;;;84.80;47.37;;;;;;;4.41;93.86;96326.88;4871913;29;20300;-67
2024/01/04 06:35:18;;;;;;;26.10;17.10;;;;;;;4.51;94.04;96301.78;4886967;29;20188;-68
2024/01/04 06:37:45;;;;;;;64.30;37.13;;;;;;;4.40;94.59;96320.09;4872030;29;20200;-68
2024/01/04 06:40:12;;;;;;;47.30;30.63;;;;;;;4.56;93.93;96336.63;4872070;29;20264;-67
2024/01/04 06:42:39;;;;;;;29.33;22.10;;;;;;;4.62;93.23;96344.09;4871947;29;20302;-68
2024/01/04 06:45:06;;;;;;;16.37;10.67;;;;;;;4.75;93.36;96339.41;4871662;29;20193;-66
2024/01/04 06:47:34;;;;;;;16.90;9.90;;;;;;;4.70;93.12;96333.59;4872071;29;20538;-68
2024/01/04 06:50:02;;;;;;;14.67;9.87;;;;;;;4.59;92.61;96320.31;4870046;29;20222;-65
2024/01/04 06:52:43;;;;;;;18.60;12.33;;;;;;;4.84;92.96;96326.28;4871771;29;20636;-65
2024/01/04 06:55:12;;;;;;;16.13;10.57;;;;;;;4.79;92.87;96321.31;4871798;29;20216;-65
2024/01/04 06:57:39;;;;;;;14.70;10.40;;;;;;;4.86;92.13;96309.91;4870216;29;20299;-67
2024/01/04 07:00:07;;;;;;;16.50;11.27;;;;;;;4.75;92.47;96293.25;4871584;29;20227;-67
2024/01/04 07:02:36;;;;;;;18.60;12.17;;;;;;;4.90;91.65;96313.25;4871503;29;20268;-68
2024/01/04 07:05:04;;;;;;;22.73;13.17;;;;;;;4.91;91.09;96310.59;4872375;29;20239;-66
2024/01/04 07:07:32;;;;;;;24.77;13.70;;;;;;;4.95;90.88;96308.75;4871427;29;20200;-66
2024/01/04 07:09:59;;;;;;;24.83;16.60;;;;;;;4.69;91.64;96290.91;4871984;29;20235;-65
2024/01/04 07:12:27;;;;;;;29.90;16.43;;;;;;;4.10;91.56;96206.63;4865720;29;20223;-67
2024/01/04 07:14:54;;;;;;;27.53;16.73;;;;;;;4.75;91.66;96298.38;4865889;29;20684;-68
2024/01/04 07:17:23;;;;;;;31.20;16.93;;;;;;;4.72;90.67;96295.91;4868559;29;20320;-68
2024/01/04 07:19:50;;;;;;;31.87;20.20;;;;;;;4.51;92.55;96297.50;4861256;29;20205;-65
2024/01/04 07:22:19;;;;;;;29.73;18.13;;;;;;;4.60;92.75;96302.31;4855296;29;20601;-64
2024/01/04 07:24:46;;;;;;;28.17;18.50;;;;;;;4.49;92.98;96289.00;4855164;29;20307;-65
2024/01/04 07:27:13;;;;;;;39.40;22.80;;;;;;;4.66;92.87;96296.97;4861021;29;20213;-61
2024/01/04 07:29:40;;;;;;;33.27;19.73;;;;;;;4.86;92.35;96309.09;4853646;29;20676;-65
2024/01/04 07:32:08;;;;;;;35.60;20.70;;;;;;;4.88;92.47;96292.75;4861361;29;20296;-64
2024/01/04 07:34:41;;;;;;;32.73;19.13;;;;;;;5.16;91.92;96317.41;4861034;29;20205;-64
2024/01/04 07:37:11;;;;;;;30.60;20.23;;;;;;;5.11;91.58;96314.19;4861625;29;20200;-64
2024/01/04 07:39:41;;;;;;;17.77;13.73;;;;;;;5.31;91.06;96322.00;4864455;29;20205;-64
2024/01/04 07:42:09;;;;;;;19.87;13.93;;;;;;;5.47;90.73;96335.94;4861313;29;20212;-66
2024/01/04 07:44:36;;;;;;;21.63;13.30;;;;;;;5.51;90.38;96329.81;4860709;29;20211;-64
2024/01/04 07:47:08;;;;;;;33.50;19.77;;;;;;;5.57;89.47;96321.88;4861648;29;20199;-63
2024/01/04 07:49:35;;;;;;;22.73;15.17;;;;;;;5.56;89.24;96328.72;4859642;29;20239;-68
2024/01/04 07:52:03;;;;;;;26.40;16.93;;;;;;;5.40;90.28;96316.53;4858339;29;20201;-66
2024/01/04 07:55:10;;;;;;;29.87;17.03;;;;;;;5.22;91.11;96297.50;4867116;29;20209;-66
2024/01/04 07:57:51;;;;;;;29.53;18.13;;;;;;;5.15;91.39;96290.94;4860851;29;20196;-68
2024/01/04 08:00:19;;;;;;;24.53;15.43;;;;;;;5.32;91.92;96292.88;4866083;29;20230;-68
2024/01/04 08:02:46;;;;;;;25.40;18.03;;;;;;;5.43;91.31;96280.47;4870791;29;20201;-67
2024/01/04 08:05:13;;;;;;;20.93;13.80;;;;;;;5.50;91.50;96287.06;4885009;29;20211;-67
2024/01/04 08:07:43;;;;;;;27.83;14.73;;;;;;;5.65;90.04;96289.03;4870244;29;20221;-65
2024/01/04 08:10:11;;;;;;;19.40;12.03;;;;;;;5.66;91.28;96281.28;4870612;29;20223;-64
2024/01/04 08:12:42;;;;;;;22.57;14.63;;;;;;;5.82;90.62;96307.19;4856841;29;20716;-67
2024/01/04 08:15:10;;;;;;;21.80;14.30;;;;;;;6.00;90.01;96324.50;4873931;29;20244;-67
2024/01/04 08:17:37;;;;;;;22.17;13.73;;;;;;;6.05;89.39;96316.59;4872289;29;20661;-68
2024/01/04 08:20:05;;;;;;;19.93;12.30;;;;;;;6.03;88.40;96315.81;4857288;29;20636;-65
2024/01/04 08:22:33;;;;;;;15.53;10.23;;;;;;;5.59;89.13;96237.91;4874615;29;20216;-67
2024/01/04 08:25:00;;;;;;;13.73;9.80;;;;;;;5.85;90.16;96289.13;4873378;29;20194;-65
2024/01/04 08:27:29;;;;;;;14.53;10.37;;;;;;;6.21;89.54;96292.81;4874522;29;20215;-67
2024/01/04 08:29:56;;;;;;;19.03;11.03;;;;;;;6.21;89.97;96291.94;4856516;29;20240;-64
2024/01/04 08:32:23;;;;;;;13.23;9.87;;;;;;;6.24;91.33;96287.53;4873708;29;20245;-67
2024/01/04 08:34:50;;;;;;;12.13;9.10;;;;;;;6.20;91.19;96292.88;4873764;29;20720;-65
2024/01/04 08:37:18;;;;;;;15.87;9.77;;;;;;;6.36;91.27;96274.19;4873640;29;20547;-66
2024/01/04 08:39:46;;;;;;;13.80;8.83;;;;;;;6.48;91.23;96270.25;4874338;29;20208;-69
2024/01/04 08:42:13;;;;;;;13.87;9.87;;;;;;;6.69;90.78;96271.06;4873155;29;20220;-64
2024/01/04 08:44:46;;;;;;;13.77;9.97;;;;;;;6.86;90.11;96254.00;4873820;29;20205;-65
2024/01/04 08:47:13;;;;;;;13.63;9.30;;;;;;;7.05;90.65;96256.59;4873407;29;20203;-67
2024/01/04 08:49:40;;;;;;;14.60;10.03;;;;;;;7.17;89.81;96250.91;4871590;29;20226;-65
2024/01/04 08:52:08;;;;;;;13.77;9.57;;;;;;;7.32;89.03;96257.94;4873053;29;20540;-67
2024/01/04 08:54:35;;;;;;;13.50;9.63;;;;;;;7.27;89.74;96213.53;4872828;29;20335;-65
2024/01/04 08:57:03;;;;;;;17.43;9.93;;;;;;;7.62;88.63;96243.66;4872739;29;20210;-66
2024/01/04 08:59:31;;;;;;;15.33;10.70;;;;;;;7.35;88.79;96193.44;4870681;29;20215;-65
2024/01/04 09:01:58;;;;;;;15.23;11.80;;;;;;;7.85;88.62;96245.97;4873203;29;20657;-65
2024/01/04 09:04:25;;;;;;;17.83;12.27;;;;;;;8.14;87.52;96240.22;4872509;29;20196;-64
2024/01/04 09:06:52;;;;;;;22.87;14.43;;;;;;;8.22;86.92;96242.47;4873377;29;20282;-66
2024/01/04 09:09:19;;;;;;;19.93;13.17;;;;;;;8.38;87.30;96234.81;4872608;29;20208;-64
2024/01/04 09:11:48;;;;;;;18.33;12.37;;;;;;;8.55;88.26;96221.91;4873147;29;20270;-65
2024/01/04 09:14:16;;;;;;;19.17;12.50;;;;;;;8.66;86.31;96227.34;4871264;29;20232;-66
2024/01/04 09:16:44;;;;;;;18.17;11.97;;;;;;;8.44;86.21;96159.69;4872811;29;20231;-65
2024/01/04 09:19:18;;;;;;;16.40;11.93;;;;;;;8.96;84.86;96228.34;4873278;29;20204;-68
2024/01/04 09:21:48;;;;;;;16.13;11.80;;;;;;;9.13;83.56;96236.03;4873918;29;20208;-67
2024/01/04 09:24:17;;;;;;;19.77;12.97;;;;;;;9.38;82.14;96226.06;4873472;29;20220;-67
2024/01/04 09:26:46;;;;;;;23.53;12.10;;;;;;;9.61;82.55;96223.06;4874032;29;20876;-68
2024/01/04 09:29:14;;;;;;;19.20;12.90;;;;;;;9.66;81.59;96210.72;4872532;29;20196;-68
2024/01/04 09:31:41;;;;;;;16.60;11.07;;;;;;;9.64;80.68;96212.53;4874640;29;20307;-66
2024/01/04 09:34:09;;;;;;;17.97;11.63;;;;;;;9.85;79.83;96213.09;4871360;29;20207;-70
2024/01/04 09:36:36;;;;;;;16.73;11.07;;;;;;;9.82;79.21;96201.19;4873214;29;20195;-67
2024/01/04 09:39:04;;;;;;;17.60;11.77;;;;;;;9.97;78.17;96183.13;4870848;29;20894;-67
2024/01/04 09:41:33;;;;;;;15.87;10.23;;;;;;;10.13;76.54;96202.06;4872849;29;20587;-68
2024/01/04 09:44:03;;;;;;;14.37;10.20;;;;;;;10.19;76.39;96194.78;4870148;29;20658;-65
2024/01/04 09:46:39;;;;;;;11.83;7.33;;;;;;;9.97;77.31;96186.56;4863126;29;20200;-68
2024/01/04 09:49:46;;;;;;;15.20;9.97;;;;;;;9.74;78.75;96163.75;4870041;29;20302;-72
2024/01/04 09:52:45;;;;;;;15.83;10.00;;;;;;;10.16;78.48;96176.84;4889425;29;20195;-69
2024/01/04 09:55:16;;;;;;;13.80;9.77;;;;;;;10.07;78.91;96181.69;4880758;29;20208;-70
2024/01/04 09:57:50;;;;;;;14.30;9.17;;;;;;;10.04;77.86;96132.72;4830321;29;20625;-74
2024/01/04 10:00:18;;;;;;;14.07;9.67;;;;;;;10.27;78.09;96145.16;4853801;29;20293;-69
2024/01/04 10:02:46;;;;;;;14.37;10.43;;;;;;;10.38;77.36;96160.91;4863108;29;20660;-69
2024/01/04 10:05:18;;;;;;;16.03;10.53;;;;;;;10.53;76.95;96147.06;4870486;29;20199;-66
2024/01/04 10:08:04;;;;;;;13.13;8.90;;;;;;;10.75;75.72;96144.84;4874024;29;20262;-68
2024/01/04 10:11:11;;;;;;;14.20;9.53;;;;;;;11.03;73.88;96151.75;4871894;29;20231;-68
2024/01/04 10:13:39;;;;;;;12.73;8.10;;;;;;;11.22;72.36;96136.72;4871338;29;20236;-66
2024/01/04 10:16:06;;;;;;;12.47;7.97;;;;;;;11.26;72.39;96138.19;4867983;29;20698;-67
2024/01/04 10:18:34;;;;;;;11.37;7.40;;;;;;;11.32;72.06;96128.28;4861233;29;20219;-66
2024/01/04 10:21:04;;;;;;;10.37;6.73;;;;;;;11.25;71.54;96114.03;4859046;29;20297;-65
2024/01/04 10:23:32;;;;;;;12.47;7.57;;;;;;;11.44;71.09;96113.69;4864916;29;20204;-67
2024/01/04 10:26:09;;;;;;;10.83;8.37;;;;;;;11.64;70.28;96115.03;4865589;29;20272;-65
2024/01/04 10:28:39;;;;;;;11.87;7.47;;;;;;;11.72;69.72;96099.84;4862616;29;20200;-66
2024/01/04 10:31:46;;;;;;;10.87;7.43;;;;;;;11.92;69.83;96107.13;4868447;29;20240;-68
2024/01/04 10:35:08;;;;;;;11.83;8.00;;;;;;;11.95;69.44;96104.34;4870902;29;20208;-66
2024/01/04 10:38:38;;;;;;;11.47;6.93;;;;;;;11.88;68.96;96085.75;4853400;29;20302;-68
2024/01/04 10:42:02;;;;;;;11.50;6.53;;;;;;;12.41;66.89;96078.72;4861604;29;20217;-70
2024/01/04 10:44:55;;;;;;;10.87;5.93;;;;;;;12.30;66.52;96053.50;4869942;29;20923;-67
2024/01/04 10:47:23;;;;;;;10.63;6.30;;;;;;;12.55;66.07;96060.44;4872104;29;20295;-66
2024/01/04 10:49:59;;;;;;;9.20;6.23;;;;;;;12.75;66.45;96052.09;4856461;29;20236;-67
2024/01/04 10:52:34;;;;;;;10.13;7.23;;;;;;;12.73;66.17;96030.59;4872990;29;20210;-70
2024/01/04 10:55:05;;;;;;;8.70;5.70;;;;;;;12.77;66.28;96042.41;4840962;29;20311;-65
2024/01/04 10:57:36;;;;;;;10.30;4.70;;;;;;;12.94;65.01;96037.69;4872098;29;20645;-68
2024/01/04 11:00:07;;;;;;;7.90;5.13;;;;;;;13.21;64.49;96044.50;4855170;29;20223;-69
2024/01/04 11:02:40;;;;;;;6.50;4.40;;;;;;;12.55;64.00;95957.38;4871114;29;20589;-67
2024/01/04 11:05:10;;;;;;;8.33;4.60;;;;;;;12.86;64.07;96003.63;4869902;29;20201;-66
2024/01/04 11:07:39;;;;;;;9.53;5.37;;;;;;;12.84;64.81;95969.13;4871773;29;20203;-66
2024/01/04 11:10:09;;;;;;;11.37;7.10;;;;;;;13.24;65.02;96039.06;4871085;29;20742;-67
2024/01/04 11:12:38;;;;;;;11.43;6.47;;;;;;;13.14;64.62;96040.66;4871674;29;20378;-67
2024/01/04 11:15:05;;;;;;;13.40;6.63;;;;;;;13.18;65.05;96027.34;4871324;29;20213;-65
2024/01/04 11:17:59;;;;;;;14.20;6.30;;;;;;;13.24;65.12;96036.47;4870760;29;20216;-71
2024/01/04 11:21:08;;;;;;;8.90;4.87;;;;;;;13.32;63.78;96037.56;4854646;29;20207;-65
2024/01/04 11:24:02;;;;;;;6.43;3.70;;;;;;;13.47;64.15;96035.63;4871264;29;20201;-66
2024/01/04 11:26:47;;;;;;;7.40;5.23;;;;;;;13.49;61.87;96029.38;4871351;29;20209;-64
2024/01/04 11:29:15;;;;;;;9.73;5.23;;;;;;;13.27;62.78;95992.06;4851854;29;20269;-66
2024/01/04 11:31:43;;;;;;;8.73;4.33;;;;;;;13.42;60.91;96016.91;4854392;29;20333;-67
2024/01/04 11:34:13;;;;;;;11.90;4.07;;;;;;;13.49;60.88;96015.53;4853809;29;20865;-68
2024/01/04 11:36:41;;;;;;;7.63;4.03;;;;;;;13.55;60.13;96010.72;4852856;29;20216;-67
2024/01/04 11:39:10;;;;;;;6.37;3.40;;;;;;;13.39;60.82;96004.16;4852916;29;20195;-66
2024/01/04 11:41:37;;;;;;;5.97;3.87;;;;;;;13.42;60.47;95983.09;4852685;29;20210;-67